Time;durP1;ratioP1;P1;durP2;ratioP2;P2;SDS_P1;SDS_P2;PMS_P1;PMS_P2;Temp;Humidity;BMP_temperature;BMP_pressure;BME280_temperature;BME280_humidity;BME280_pressure;Samples;Min_cycle;Max_cycle;Signal;HPM_P1;HPM_P2
2021/11/09 00:01:01;;;;;;;20.45;13.52;;;;;;;12.43;100.00;101649.28;4926069;29;20367;-70
2021/11/09 00:03:51;;;;;;;20.00;13.07;;;;;;;12.91;100.00;101642.59;4939646;29;20023;-70
2021/11/09 00:06:42;;;;;;;23.00;14.45;;;;;;;12.62;100.00;101647.34;4926537;29;20031;-70
2021/11/09 00:09:34;;;;;;;22.73;13.80;;;;;;;12.54;100.00;101636.03;4938691;29;20126;-69
2021/11/09 00:12:19;;;;;;;21.55;12.85;;;;;;;12.54;100.00;101636.88;4938836;29;20020;-70
2021/11/09 00:15:08;;;;;;;25.95;13.82;;;;;;;12.92;100.00;101647.84;4938795;29;20063;-69
2021/11/09 00:17:57;;;;;;;19.38;13.40;;;;;;;12.60;100.00;101654.34;4912064;29;20458;-69
2021/11/09 00:20:43;;;;;;;24.10;14.30;;;;;;;12.49;100.00;101657.09;4938068;29;20027;-69
2021/11/09 00:23:29;;;;;;;27.05;13.85;;;;;;;12.32;100.00;101668.66;4937340;29;20370;-69
2021/11/09 00:26:16;;;;;;;28.95;15.68;;;;;;;12.57;100.00;101678.03;4925755;29;20130;-69
2021/11/09 00:29:02;;;;;;;29.45;15.05;;;;;;;12.44;100.00;101682.56;4938088;29;20366;-70
2021/11/09 00:31:48;;;;;;;25.27;14.98;;;;;;;12.42;100.00;101673.81;4938811;29;20032;-70
2021/11/09 00:34:33;;;;;;;19.17;13.43;;;;;;;12.47;100.00;101686.91;4939139;29;20077;-69
2021/11/09 00:37:20;;;;;;;22.85;14.00;;;;;;;12.61;100.00;101675.38;4925499;29;20023;-69
2021/11/09 00:40:07;;;;;;;22.25;13.57;;;;;;;12.22;100.00;101678.38;4937841;29;20347;-69
2021/11/09 00:42:54;;;;;;;23.02;13.93;;;;;;;12.25;100.00;101685.34;4937909;29;20567;-69
2021/11/09 00:45:40;;;;;;;21.58;13.60;;;;;;;12.11;100.00;101687.25;4923681;29;20031;-69
2021/11/09 00:48:26;;;;;;;21.50;13.30;;;;;;;12.25;100.00;101694.13;4937859;29;20521;-69
2021/11/09 00:51:12;;;;;;;24.98;13.40;;;;;;;12.57;100.00;101715.72;4937366;29;20446;-68
2021/11/09 00:53:58;;;;;;;24.45;14.15;;;;;;;12.88;100.00;101713.66;4938422;29;20533;-69
2021/11/09 00:56:45;;;;;;;19.80;12.68;;;;;;;12.53;100.00;101702.63;4938514;29;20141;-69
2021/11/09 00:59:31;;;;;;;21.67;13.48;;;;;;;12.41;100.00;101697.47;4937045;29;20463;-70
2021/11/09 01:02:17;;;;;;;21.58;13.30;;;;;;;12.07;100.00;101703.91;4938433;29;20043;-68
2021/11/09 01:05:03;;;;;;;20.30;13.52;;;;;;;12.13;100.00;101709.13;4937750;29;20035;-70
2021/11/09 01:08:02;;;;;;;17.25;12.93;;;;;;;12.08;100.00;101708.28;4936948;29;20071;-69
2021/11/09 01:10:52;;;;;;;17.73;12.43;;;;;;;12.28;100.00;101703.72;4939238;29;20442;-70
2021/11/09 01:13:37;;;;;;;21.17;13.15;;;;;;;12.09;100.00;101710.06;4937782;29;20071;-69
2021/11/09 01:16:23;;;;;;;17.35;12.90;;;;;;;12.19;100.00;101724.84;4938140;29;20046;-69
2021/11/09 02:15:21;;;;;;;23.90;13.35;;;;;;;11.79;100.00;101716.38;5152383;23;20056;-70
2021/11/09 02:18:09;;;;;;;24.92;14.23;;;;;;;12.04;100.00;101711.81;4936125;29;20043;-70
2021/11/09 02:20:57;;;;;;;29.77;14.60;;;;;;;12.07;100.00;101688.16;4936253;29;20031;-70
2021/11/09 02:23:45;;;;;;;26.85;14.02;;;;;;;11.76;100.00;101682.25;4937358;29;20046;-69
2021/11/09 02:26:31;;;;;;;28.48;14.23;;;;;;;11.83;100.00;101670.84;4935877;29;20058;-70
2021/11/09 02:29:17;;;;;;;27.98;14.48;;;;;;;11.87;100.00;101667.31;4936126;29;20032;-69
2021/11/09 02:32:04;;;;;;;23.25;14.20;;;;;;;12.08;100.00;101661.00;4936680;29;20055;-70
2021/11/09 02:34:50;;;;;;;24.30;13.77;;;;;;;12.08;100.00;101645.25;4936246;29;20036;-70
2021/11/09 02:37:36;;;;;;;25.75;14.27;;;;;;;11.71;100.00;101644.69;4936217;29;20028;-69
2021/11/09 02:40:23;;;;;;;25.13;14.60;;;;;;;11.87;100.00;101650.69;4922363;29;20035;-69
2021/11/09 02:43:14;;;;;;;24.98;14.20;;;;;;;11.65;100.00;101646.47;4937714;29;20106;-70
2021/11/09 02:52:02;;;;;;;23.20;15.27;;;;;;;12.15;100.00;101632.06;4936384;29;20095;-70
2021/11/09 02:54:50;;;;;;;22.52;14.43;;;;;;;12.20;100.00;101656.53;4923405;29;20110;-68
2021/11/09 05:08:19;;;;;;;20.83;14.50;;;;;;;11.86;100.00;101780.22;4937520;29;20055;-69
2021/11/09 05:09:31;;;;;;;20.45;14.02;;;;;;;11.89;100.00;101788.97;4937703;29;20036;-68
2021/11/09 05:12:17;;;;;;;21.88;13.23;;;;;;;11.54;100.00;101796.09;4938630;29;20038;-69
2021/11/09 05:15:03;;;;;;;23.27;14.68;;;;;;;12.11;100.00;101790.59;4938601;29;20028;-68
2021/11/09 05:17:49;;;;;;;18.92;13.05;;;;;;;11.55;100.00;101810.09;4937895;29;20055;-68
2021/11/09 05:20:35;;;;;;;21.38;13.32;;;;;;;11.24;100.00;101801.47;4937503;29;20039;-68
2021/11/09 05:23:22;;;;;;;20.08;12.93;;;;;;;11.22;100.00;101790.13;4923457;29;20046;-68
2021/11/09 05:26:08;;;;;;;19.58;13.95;;;;;;;11.42;100.00;101785.69;4936966;29;20150;-68
2021/11/09 05:28:54;;;;;;;24.98;14.52;;;;;;;11.48;100.00;101790.00;4924177;29;20035;-68
2021/11/09 05:31:40;;;;;;;24.05;14.00;;;;;;;12.15;100.00;101780.91;4937108;29;20057;-68
2021/11/09 05:34:29;;;;;;;21.52;13.55;;;;;;;11.92;100.00;101794.19;4937022;29;20129;-68
2021/11/09 05:37:19;;;;;;;19.88;12.70;;;;;;;11.62;100.00;101796.13;4937796;29;20051;-69
2021/11/09 05:40:07;;;;;;;20.00;12.88;;;;;;;11.66;100.00;101792.59;4923400;29;20039;-70
2021/11/09 05:42:52;;;;;;;23.05;13.75;;;;;;;11.29;100.00;101797.06;4937696;29;20035;-68
2021/11/09 05:45:38;;;;;;;23.60;14.00;;;;;;;11.60;100.00;101788.25;4936191;29;20032;-68
2021/11/09 05:48:24;;;;;;;23.40;14.07;;;;;;;12.10;100.00;101774.81;4936813;29;20439;-68
2021/11/09 05:51:10;;;;;;;22.45;13.77;;;;;;;12.09;100.00;101786.22;4937649;29;20035;-69
2021/11/09 05:53:57;;;;;;;20.27;14.05;;;;;;;11.99;100.00;101801.16;4936172;29;20098;-69
2021/11/09 05:56:42;;;;;;;22.30;13.00;;;;;;;11.41;100.00;101819.78;4936242;29;20052;-69
2021/11/09 05:59:28;;;;;;;21.38;12.93;;;;;;;11.62;100.00;101820.59;4937727;29;20185;-69
2021/11/09 06:02:14;;;;;;;17.10;12.43;;;;;;;11.44;100.00;101825.00;4936258;29;20351;-69
2021/11/09 06:05:00;;;;;;;23.73;12.45;;;;;;;11.12;100.00;101822.47;4936617;29;20035;-68
2021/11/09 06:07:46;;;;;;;21.65;12.23;;;;;;;11.19;100.00;101831.19;4936021;29;20032;-68
2021/11/09 06:10:32;;;;;;;25.92;13.05;;;;;;;11.13;100.00;101833.84;4937372;29;20094;-68
2021/11/09 06:13:17;;;;;;;21.50;12.55;;;;;;;11.13;100.00;101836.47;4937470;29;20055;-69
2021/11/09 06:16:04;;;;;;;22.52;12.63;;;;;;;11.17;100.00;101846.94;4937246;29;20035;-68
2021/11/09 06:18:50;;;;;;;21.75;12.73;;;;;;;11.31;100.00;101845.19;4937529;29;20106;-69
2021/11/09 06:21:36;;;;;;;23.35;13.20;;;;;;;11.07;100.00;101855.72;4937089;29;20023;-69
2021/11/09 06:24:23;;;;;;;22.45;13.93;;;;;;;11.22;100.00;101850.44;4937483;29;20043;-68
2021/11/09 06:27:09;;;;;;;24.15;13.75;;;;;;;11.58;100.00;101854.72;4937269;29;20039;-68
2021/11/09 06:29:55;;;;;;;25.30;14.68;;;;;;;11.97;100.00;101870.34;4937293;29;20366;-69
2021/11/09 06:32:41;;;;;;;22.30;14.52;;;;;;;11.77;100.00;101880.06;4937226;29;20051;-69
2021/11/09 06:35:27;;;;;;;23.38;14.15;;;;;;;11.02;100.00;101874.94;4922789;29;20043;-68
2021/11/09 06:38:12;;;;;;;22.85;13.77;;;;;;;11.71;100.00;101882.69;4937184;29;20031;-68
2021/11/09 06:40:59;;;;;;;20.77;13.98;;;;;;;11.51;100.00;101874.88;4937440;29;20035;-69
2021/11/09 06:43:44;;;;;;;20.00;13.50;;;;;;;11.55;100.00;101871.34;4937472;29;20031;-68
2021/11/09 06:46:31;;;;;;;23.60;14.65;;;;;;;11.50;100.00;101878.38;4937057;29;20050;-68
2021/11/09 06:49:16;;;;;;;25.20;15.50;;;;;;;11.94;100.00;101879.09;4937073;29;20167;-68
2021/11/09 06:52:02;;;;;;;21.75;15.07;;;;;;;11.78;100.00;101880.03;4939669;29;20118;-67
2021/11/09 06:54:49;;;;;;;26.20;16.02;;;;;;;11.10;100.00;101888.94;4940918;29;20122;-69
2021/11/09 06:57:35;;;;;;;24.40;17.35;;;;;;;11.49;100.00;101897.59;4940415;29;20043;-68
2021/11/09 07:00:23;;;;;;;25.17;16.63;;;;;;;11.48;100.00;101903.72;4925157;29;20070;-69
2021/11/09 07:03:09;;;;;;;30.98;18.13;;;;;;;11.65;100.00;101890.63;4939554;29;20031;-68
2021/11/09 07:05:55;;;;;;;42.97;28.77;;;;;;;11.71;100.00;101896.72;4940516;29;20035;-69
2021/11/09 07:08:40;;;;;;;28.70;19.23;;;;;;;11.58;100.00;101902.81;4940441;29;20027;-69
2021/11/09 07:11:26;;;;;;;37.90;20.80;;;;;;;11.21;100.00;101919.50;4927395;29;20051;-68
2021/11/09 07:14:13;;;;;;;27.58;16.67;;;;;;;11.15;100.00;101919.53;4940318;29;20032;-69
2021/11/09 07:16:59;;;;;;;36.08;17.20;;;;;;;10.62;100.00;101928.25;4940156;29;20119;-69
2021/11/09 07:19:49;;;;;;;29.83;17.17;;;;;;;10.33;100.00;101929.94;4940318;29;20024;-68
2021/11/09 07:22:36;;;;;;;33.42;19.45;;;;;;;10.34;100.00;101929.06;4940607;29;20024;-68
2021/11/09 07:25:21;;;;;;;39.47;20.25;;;;;;;10.64;100.00;101934.38;4926403;29;20446;-69
2021/11/09 07:28:08;;;;;;;34.65;22.10;;;;;;;10.87;100.00;101937.88;4926921;29;20057;-68
2021/11/09 07:30:58;;;;;;;34.22;21.38;;;;;;;11.00;100.00;101932.66;4939729;29;20027;-68
2021/11/09 07:33:44;;;;;;;38.70;23.15;;;;;;;10.81;100.00;101945.75;4938744;29;20035;-69
2021/11/09 07:36:30;;;;;;;32.13;21.27;;;;;;;10.98;100.00;101946.63;4938348;29;20035;-68
2021/11/09 07:39:16;;;;;;;31.50;20.65;;;;;;;11.31;100.00;101949.25;4939436;29;20024;-68
2021/11/09 07:42:03;;;;;;;31.92;21.13;;;;;;;11.31;100.00;101944.00;4925125;29;20494;-69
2021/11/09 07:44:51;;;;;;;30.83;20.90;;;;;;;11.42;100.00;101927.38;4925622;29;20039;-69
2021/11/09 07:47:37;;;;;;;37.22;24.77;;;;;;;11.27;100.00;101924.78;4938425;29;20035;-69
2021/11/09 07:50:24;;;;;;;26.77;19.23;;;;;;;11.32;100.00;101919.50;4939752;29;20098;-68
2021/11/09 07:53:15;;;;;;;27.70;18.95;;;;;;;10.98;100.00;101933.53;4938670;29;20338;-68
2021/11/09 07:56:13;;;;;;;32.25;21.58;;;;;;;10.70;100.00;101950.97;4939219;29;20454;-69
2021/11/09 08:01:49;;;;;;;32.83;21.67;;;;;;;11.14;100.00;101954.50;4938771;29;20028;-68
2021/11/09 08:04:42;;;;;;;38.55;22.98;;;;;;;11.05;100.00;101949.25;4939379;29;20103;-69
2021/11/09 08:07:35;;;;;;;36.53;24.65;;;;;;;11.44;100.00;101958.84;4938746;29;20032;-69
2021/11/09 08:10:20;;;;;;;35.63;23.05;;;;;;;11.24;100.00;101952.72;4938636;29;20036;-68
2021/11/09 08:13:06;;;;;;;38.13;24.88;;;;;;;10.80;100.00;101957.97;4925277;29;20355;-69
2021/11/09 08:15:52;;;;;;;33.63;23.80;;;;;;;10.54;100.00;101969.28;4939284;29;20032;-69
2021/11/09 08:18:38;;;;;;;38.72;24.70;;;;;;;10.76;100.00;101976.34;4939398;29;20027;-68
2021/11/09 08:21:24;;;;;;;34.17;23.92;;;;;;;10.46;100.00;101974.50;4937613;29;20036;-68
2021/11/09 08:24:10;;;;;;;32.30;23.60;;;;;;;10.70;100.00;101985.06;4937844;29;20379;-69
2021/11/09 08:27:04;;;;;;;37.15;26.23;;;;;;;10.47;100.00;101984.13;4938512;29;20063;-69
2021/11/09 08:29:50;;;;;;;43.13;29.00;;;;;;;11.03;100.00;101977.22;4911478;29;20035;-69
2021/11/09 08:32:36;;;;;;;37.03;25.13;;;;;;;10.65;100.00;101978.06;4939435;29;20110;-68
2021/11/09 08:35:24;;;;;;;44.75;26.05;;;;;;;10.51;100.00;101974.50;4938635;29;20028;-68
2021/11/09 08:38:09;;;;;;;43.90;27.08;;;;;;;10.80;100.00;101973.69;4924857;29;20041;-69
2021/11/09 08:40:55;;;;;;;45.42;27.13;;;;;;;11.10;100.00;101971.13;4938851;29;20035;-69
2021/11/09 08:43:49;;;;;;;35.25;23.92;;;;;;;10.99;100.00;101985.09;4937743;29;20031;-69
2021/11/09 08:46:41;;;;;;;34.10;22.88;;;;;;;10.95;100.00;102007.81;4937717;29;20050;-68
2021/11/09 08:49:29;;;;;;;30.70;22.13;;;;;;;10.81;100.00;102012.16;4938441;29;20032;-68
2021/11/09 08:52:16;;;;;;;36.63;25.15;;;;;;;10.45;100.00;102011.19;4937464;29;20027;-68
2021/11/09 09:07:03;;;;;;;29.00;20.25;;;;;;;10.00;100.00;102053.69;4937922;29;20063;-68
2021/11/09 09:09:49;;;;;;;31.23;20.67;;;;;;;10.44;100.00;102057.47;4937329;29;20122;-69
2021/11/09 09:12:36;;;;;;;30.95;22.40;;;;;;;10.31;100.00;102047.81;4937106;29;20103;-69
2021/11/09 09:15:22;;;;;;;52.45;26.77;;;;;;;10.54;100.00;102040.03;4924294;29;20028;-69
2021/11/09 09:18:08;;;;;;;38.67;23.85;;;;;;;10.60;100.00;102045.31;4937476;29;20023;-68
2021/11/09 09:21:01;;;;;;;36.58;21.92;;;;;;;10.54;100.00;102055.75;4938015;29;20031;-68
2021/11/09 09:23:57;;;;;;;37.90;22.83;;;;;;;10.52;100.00;102074.09;4936716;29;20088;-67
2021/11/09 09:56:43;;;;;;;46.58;29.02;;;;;;;9.68;100.00;102100.59;4937691;29;20082;-68
2021/11/09 09:59:33;;;;;;;40.90;28.40;;;;;;;9.83;100.00;102102.44;4923799;29;20027;-68
2021/11/09 10:02:27;;;;;;;44.58;30.88;;;;;;;10.22;100.00;102094.03;4936432;29;20473;-69
2021/11/09 10:05:14;;;;;;;48.33;32.50;;;;;;;9.94;100.00;102083.31;4936197;29;20059;-68
2021/11/09 10:08:09;;;;;;;56.70;34.38;;;;;;;9.60;100.00;102097.03;4937081;29;20035;-68
2021/11/09 10:10:55;;;;;;;55.38;33.58;;;;;;;9.61;100.00;102121.47;4923072;29;20042;-67
2021/11/09 10:13:41;;;;;;;50.58;32.25;;;;;;;9.46;100.00;102137.03;4923486;29;20035;-68
2021/11/09 10:16:27;;;;;;;53.28;32.08;;;;;;;9.25;100.00;102161.22;4937136;29;20031;-68
2021/11/09 10:19:31;;;;;;;49.05;32.40;;;;;;;9.63;100.00;102153.75;4935786;29;20043;-68
2021/11/09 10:22:30;;;;;;;50.42;32.22;;;;;;;9.87;100.00;102148.72;4936340;29;20036;-68
2021/11/09 10:25:18;;;;;;;48.17;30.98;;;;;;;9.79;100.00;102161.75;4922675;29;20055;-68
2021/11/09 10:28:06;;;;;;;46.47;29.23;;;;;;;9.62;100.00;102186.88;4936354;29;20130;-68
2021/11/09 10:31:02;;;;;;;41.90;28.85;;;;;;;9.81;100.00;102172.25;4922259;29;20039;-68
2021/11/09 10:33:51;;;;;;;44.28;29.02;;;;;;;10.12;100.00;102148.06;4923163;29;20105;-68
2021/11/09 10:36:37;;;;;;;47.05;28.73;;;;;;;10.34;100.00;102136.88;4922374;29;20115;-68
2021/11/09 10:39:25;;;;;;;45.40;28.52;;;;;;;10.17;100.00;102140.25;4937329;29;20070;-67
2021/11/09 10:42:12;;;;;;;43.75;28.00;;;;;;;9.82;100.00;102159.16;4923979;29;20170;-68
2021/11/09 10:45:09;;;;;;;42.35;26.27;;;;;;;9.69;100.00;102193.09;4935903;29;20447;-68
2021/11/09 10:48:00;;;;;;;42.67;27.65;;;;;;;9.93;100.00;102209.88;4936079;29;20112;-68
2021/11/09 10:50:52;;;;;;;43.88;28.17;;;;;;;10.01;100.00;102197.72;4922172;29;20039;-67
2021/11/09 10:53:47;;;;;;;33.72;24.13;;;;;;;9.91;100.00;102182.81;4935645;29;20028;-67
2021/11/09 10:56:58;;;;;;;30.63;22.17;;;;;;;9.76;100.00;102194.88;4935335;29;20454;-68
2021/11/09 11:03:50;;;;;;;28.98;20.98;;;;;;;10.09;100.00;102224.03;4842800;29;20034;-68
2021/11/09 11:06:44;;;;;;;23.83;17.63;;;;;;;10.09;100.00;102201.31;4844910;29;20488;-69
2021/11/09 11:09:30;;;;;;;23.83;16.90;;;;;;;9.65;100.00;102178.22;4935636;29;20411;-68
2021/11/09 11:12:15;;;;;;;24.48;16.63;;;;;;;9.54;100.00;102172.88;4936190;29;20343;-68
2021/11/09 11:15:10;;;;;;;20.98;15.05;;;;;;;9.42;100.00;102179.72;4936816;29;20034;-68
2021/11/09 11:17:56;;;;;;;23.23;15.77;;;;;;;9.56;100.00;102197.31;4923054;29;20102;-68
2021/11/09 11:20:44;;;;;;;20.45;15.07;;;;;;;9.89;100.00;102208.09;4923184;29;20067;-68
2021/11/09 11:23:31;;;;;;;20.88;14.68;;;;;;;9.60;100.00;102238.34;4934854;29;20035;-68
2021/11/09 11:26:18;;;;;;;15.93;12.20;;;;;;;9.32;100.00;102240.63;4935409;29;20362;-68
2021/11/09 11:29:05;;;;;;;12.52;9.82;;;;;;;9.13;100.00;102236.91;4923029;29;20030;-69
2021/11/09 11:31:54;;;;;;;14.73;10.27;;;;;;;9.18;100.00;102240.47;4935479;29;20028;-68
2021/11/09 11:34:40;;;;;;;12.63;9.25;;;;;;;9.16;100.00;102244.78;4935734;29;20032;-67
2021/11/09 11:37:26;;;;;;;12.77;9.05;;;;;;;9.21;100.00;102256.19;4935966;29;20118;-68
2021/11/09 11:40:12;;;;;;;14.18;9.43;;;;;;;8.99;100.00;102258.50;4939841;29;20461;-67
2021/11/09 11:42:57;;;;;;;12.02;9.45;;;;;;;9.33;100.00;102269.41;4939105;29;20031;-68
2021/11/09 11:45:46;;;;;;;11.27;8.70;;;;;;;9.49;100.00;102286.19;4938330;29;20020;-68
2021/11/09 11:49:09;;;;;;;10.38;7.80;;;;;;;9.38;100.00;102298.25;4939971;29;20042;-67
2021/11/09 11:51:55;;;;;;;12.57;8.85;;;;;;;9.13;100.00;102317.09;4938163;29;20055;-68
2021/11/09 11:55:01;;;;;;;9.90;7.60;;;;;;;8.80;100.00;102314.00;4938743;29;20028;-68
2021/11/09 11:57:49;;;;;;;12.63;7.97;;;;;;;8.85;100.00;102318.41;4938189;29;20130;-69
2021/11/09 12:00:43;;;;;;;12.95;7.90;;;;;;;8.87;100.00;102305.38;4938335;29;20054;-68
2021/11/09 12:03:29;;;;;;;10.63;8.30;;;;;;;8.66;100.00;102295.50;4938426;29;20031;-69
2021/11/09 12:06:18;;;;;;;14.05;9.82;;;;;;;8.87;100.00;102295.81;4939566;29;20042;-70
2021/11/09 12:09:04;;;;;;;14.38;10.73;;;;;;;8.72;100.00;102289.50;4939775;29;20031;-69
2021/11/09 12:11:50;;;;;;;19.15;10.70;;;;;;;8.62;100.00;102306.75;4939315;29;20115;-69
2021/11/09 12:14:45;;;;;;;17.20;10.55;;;;;;;8.66;100.00;102300.72;4923832;29;20070;-67
2021/11/09 12:17:35;;;;;;;19.67;11.43;;;;;;;8.72;100.00;102292.09;4938977;29;20477;-68
2021/11/09 12:20:40;;;;;;;15.77;10.50;;;;;;;8.71;100.00;102301.66;4937979;29;20481;-69
2021/11/09 12:23:28;;;;;;;19.13;11.73;;;;;;;8.99;100.00;102309.06;4938213;29;20020;-68
2021/11/09 12:26:57;;;;;;;15.85;11.25;;;;;;;8.97;100.00;102333.44;4937359;29;20109;-68
2021/11/09 12:29:54;;;;;;;16.33;11.18;;;;;;;8.64;100.00;102349.44;4938018;29;20114;-68
2021/11/09 12:32:42;;;;;;;15.15;9.95;;;;;;;8.58;100.00;102357.22;4938487;29;20141;-68
2021/11/09 12:35:28;;;;;;;16.15;10.30;;;;;;;8.64;100.00;102367.75;4936997;29;20067;-68
2021/11/09 12:38:22;;;;;;;12.88;9.27;;;;;;;8.68;100.00;102393.06;4938450;29;20052;-68
2021/11/09 12:41:52;;;;;;;13.50;9.65;;;;;;;8.86;100.00;102411.69;4938689;29;20028;-68
2021/11/09 12:44:38;;;;;;;13.68;9.40;;;;;;;9.04;100.00;102435.50;4939215;29;20055;-68
2021/11/09 12:47:24;;;;;;;12.43;8.95;;;;;;;9.36;100.00;102444.72;4938829;29;20031;-68
2021/11/09 12:50:13;;;;;;;9.98;7.82;;;;;;;8.94;100.00;102420.53;4939055;29;20074;-69
2021/11/09 12:53:11;;;;;;;11.30;7.47;;;;;;;8.82;100.00;102427.28;4938167;29;20039;-68
2021/11/09 12:56:14;;;;;;;13.93;7.28;;;;;;;8.57;100.00;102440.78;4937843;29;20393;-68
2021/11/09 12:59:10;;;;;;;13.18;7.68;;;;;;;8.78;100.00;102435.91;4924132;29;20047;-72
2021/11/09 13:05:09;;;;;;;50.80;19.48;;;;;;;8.58;100.00;102455.59;4938808;29;20039;-70
2021/11/09 13:08:14;;;;;;;17.30;10.88;;;;;;;9.03;100.00;102464.22;4938225;29;20042;-71
2021/11/09 13:11:39;;;;;;;58.97;37.92;;;;;;;9.21;100.00;102461.91;4937982;29;20039;-70
2021/11/09 13:14:45;;;;;;;15.18;10.32;;;;;;;8.69;100.00;102474.97;4938785;29;20106;-70
2021/11/09 13:17:51;;;;;;;18.55;11.40;;;;;;;8.76;100.00;102480.31;4937725;29;20035;-72
2021/11/09 13:20:49;;;;;;;59.08;32.63;;;;;;;8.95;100.00;102479.78;4938437;29;20038;-70
2021/11/09 13:23:34;;;;;;;20.48;14.57;;;;;;;8.82;100.00;102488.28;4937080;29;20035;-70
2021/11/09 13:26:20;;;;;;;27.92;19.90;;;;;;;8.73;100.00;102482.00;4923053;29;20461;-71
2021/11/09 13:29:07;;;;;;;11.02;7.40;;;;;;;8.88;100.00;102483.13;4924988;29;20027;-69
2021/11/09 13:31:53;;;;;;;11.13;7.75;;;;;;;8.95;100.00;102481.50;4937685;29;20032;-71
2021/11/09 13:34:40;;;;;;;11.43;8.63;;;;;;;8.68;100.00;102471.47;4938262;29;20028;-70
2021/11/09 13:37:35;;;;;;;12.48;9.23;;;;;;;8.76;100.00;102501.22;4923691;29;20027;-70
2021/11/09 13:40:21;;;;;;;11.52;9.55;;;;;;;8.71;100.00;102528.13;4937346;29;20037;-69
2021/11/09 13:43:08;;;;;;;15.40;9.73;;;;;;;8.65;100.00;102502.75;4938491;29;20110;-71
2021/11/09 13:45:59;;;;;;;15.48;11.95;;;;;;;8.69;100.00;102499.34;4938261;29;20027;-70
2021/11/09 13:48:50;;;;;;;18.40;14.25;;;;;;;8.74;100.00;102502.94;4937082;29;20031;-70
2021/11/09 13:51:43;;;;;;;23.23;17.55;;;;;;;8.96;100.00;102525.97;4937345;29;20046;-71
2021/11/09 13:54:41;;;;;;;13.32;9.75;;;;;;;8.91;100.00;102548.56;4936787;29;20024;-70
2021/11/09 13:57:29;;;;;;;14.88;10.45;;;;;;;9.13;100.00;102550.69;4923755;29;20051;-70
2021/11/09 14:00:23;;;;;;;12.00;9.02;;;;;;;9.30;100.00;102569.28;4938369;29;20036;-70
2021/11/09 14:03:44;;;;;;;15.32;10.65;;;;;;;9.52;100.00;102598.47;4946264;29;20031;-68
2021/11/09 14:10:23;;;;;;;9.68;7.70;;;;;;;9.70;100.00;102624.06;4934704;29;20050;-68
2021/11/09 14:18:58;;;;;;;12.13;8.48;;;;;;;9.57;100.00;102632.56;4937825;29;20473;-69
2021/11/09 14:21:46;;;;;;;11.70;8.57;;;;;;;9.56;100.00;102615.97;4924481;29;20036;-69
2021/11/09 14:24:31;;;;;;;11.15;7.35;;;;;;;8.88;100.00;102619.06;4938210;29;20031;-68
2021/11/09 14:27:17;;;;;;;9.75;7.65;;;;;;;9.30;100.00;102679.16;4923169;29;20078;-70
2021/11/09 14:30:08;;;;;;;11.35;8.20;;;;;;;9.35;100.00;102727.19;4936090;29;20032;-69
2021/11/09 14:33:05;;;;;;;10.43;7.85;;;;;;;9.30;100.00;102742.84;4937777;29;20034;-69
2021/11/09 14:35:54;;;;;;;12.55;8.25;;;;;;;9.17;100.00;102739.94;4923233;29;20042;-68
2021/11/09 14:38:41;;;;;;;11.90;8.68;;;;;;;9.05;100.00;102724.84;4937829;29;20032;-69
2021/11/09 14:41:31;;;;;;;13.15;8.50;;;;;;;8.77;100.00;102738.19;4924464;29;20449;-70
2021/11/09 14:44:17;;;;;;;10.52;7.63;;;;;;;8.81;100.00;102713.88;4924334;29;20055;-70
2021/11/09 14:47:25;;;;;;;9.48;7.15;;;;;;;8.35;100.00;102728.50;4937392;29;20352;-69
2021/11/09 14:50:21;;;;;;;9.48;6.30;;;;;;;8.17;100.00;102731.53;4924090;29;20462;-69
2021/11/09 14:53:31;;;;;;;12.27;8.68;;;;;;;8.30;100.00;102728.41;4937304;29;20354;-69
2021/11/09 14:56:23;;;;;;;17.33;10.38;;;;;;;8.54;100.00;102730.69;4936727;29;20103;-70
2021/11/09 14:59:13;;;;;;;14.25;10.35;;;;;;;8.53;100.00;102744.63;4935896;29;20031;-69
2021/11/09 15:02:01;;;;;;;9.57;7.07;;;;;;;8.18;100.00;102743.75;4936202;29;20378;-69
2021/11/09 15:04:50;;;;;;;14.10;10.20;;;;;;;8.61;100.00;102763.97;4936373;29;20035;-68
2021/11/09 15:07:54;;;;;;;11.18;7.13;;;;;;;8.61;100.00;102780.50;4937200;29;20039;-69
2021/11/09 15:10:52;;;;;;;20.85;13.35;;;;;;;8.71;100.00;102784.22;4923930;29;20061;-68
2021/11/09 15:28:32;;;;;;;8.07;5.72;;;;;;;8.46;100.00;102808.00;4939836;29;20024;-69
2021/11/09 15:31:45;;;;;;;9.90;6.20;;;;;;;8.27;100.00;102808.38;4939426;29;20054;-68
2021/11/09 15:34:46;;;;;;;12.30;8.65;;;;;;;8.61;100.00;102821.44;4941119;29;20035;-68
2021/11/09 15:37:37;;;;;;;11.15;7.43;;;;;;;8.84;100.00;102826.34;4939974;29;20023;-69
2021/11/09 15:40:23;;;;;;;28.13;17.70;;;;;;;8.76;100.00;102837.50;4939722;29;20031;-69
2021/11/09 15:43:09;;;;;;;23.25;15.15;;;;;;;8.32;100.00;102839.00;4939286;29;20039;-69
2021/11/09 15:45:55;;;;;;;23.75;16.30;;;;;;;8.13;100.00;102833.25;4938738;29;20065;-68
2021/11/09 15:48:41;;;;;;;30.95;18.63;;;;;;;8.61;100.00;102824.06;4938727;29;20046;-68
2021/11/09 15:51:27;;;;;;;67.68;41.33;;;;;;;8.84;100.00;102821.13;4939161;29;20462;-69
2021/11/09 15:54:13;;;;;;;14.15;8.57;;;;;;;8.38;100.00;102820.88;4939267;29;20453;-69
2021/11/09 15:56:58;;;;;;;17.55;8.93;;;;;;;8.36;100.00;102832.16;4924457;29;20118;-68
2021/11/09 15:59:45;;;;;;;15.65;9.00;;;;;;;8.23;100.00;102848.31;4924692;29;20118;-68
2021/11/09 16:02:32;;;;;;;17.30;10.48;;;;;;;8.63;100.00;102853.69;4938601;29;20051;-69
2021/11/09 16:05:19;;;;;;;29.73;20.95;;;;;;;8.46;100.00;102850.69;4938337;29;20036;-69
2021/11/09 16:08:06;;;;;;;18.08;10.45;;;;;;;8.63;100.00;102853.69;4938293;29;20039;-68
2021/11/09 16:10:52;;;;;;;23.77;15.63;;;;;;;8.97;100.00;102858.91;4938701;29;20119;-69
2021/11/09 16:13:39;;;;;;;19.33;12.38;;;;;;;9.05;100.00;102863.44;4939535;29;20137;-68
2021/11/09 16:16:25;;;;;;;36.05;23.88;;;;;;;9.48;100.00;102855.69;4937925;29;20044;-68
2021/11/09 16:19:11;;;;;;;33.10;18.40;;;;;;;9.12;100.00;102860.13;4925232;29;20024;-68
2021/11/09 16:21:57;;;;;;;22.05;12.32;;;;;;;9.16;100.00;102854.09;4939421;29;20157;-69
2021/11/09 16:24:43;;;;;;;41.45;21.45;;;;;;;9.14;100.00;102858.44;4937291;29;20340;-69
2021/11/09 16:27:29;;;;;;;23.23;13.90;;;;;;;9.47;100.00;102858.25;4939492;29;20049;-70
2021/11/09 16:30:18;;;;;;;31.30;15.88;;;;;;;8.98;100.00;102864.16;4938654;29;20039;-68
2021/11/09 16:33:13;;;;;;;39.42;21.55;;;;;;;9.04;100.00;102863.41;4937621;29;20043;-69
2021/11/09 16:36:07;;;;;;;31.52;15.23;;;;;;;9.13;100.00;102859.25;4937444;29;20031;-68
2021/11/09 16:38:56;;;;;;;22.55;13.27;;;;;;;9.32;100.00;102866.66;4938093;29;20111;-68
2021/11/09 16:41:42;;;;;;;36.05;19.85;;;;;;;9.40;100.00;102864.22;4937974;29;20370;-69
2021/11/09 16:44:28;;;;;;;44.80;25.88;;;;;;;9.27;100.00;102870.03;4939299;29;20463;-69
2021/11/09 16:47:14;;;;;;;19.38;13.70;;;;;;;9.17;100.00;102876.78;4939028;29;20473;-69
2021/11/09 16:53:06;;;;;;;19.25;14.52;;;;;;;8.96;100.00;102892.00;4938466;29;20106;-68
2021/11/09 17:19:35;;;;;;;20.95;14.13;;;;;;;8.52;100.00;102915.28;4918421;29;20500;-68
2021/11/09 18:15:03;;;;;;;43.38;28.27;;;;;;;8.41;100.00;103003.78;4937105;29;20103;-68
2021/11/09 18:20:53;;;;;;;39.72;26.33;;;;;;;8.56;100.00;103008.59;4937005;29;20124;-68
2021/11/09 18:23:39;;;;;;;37.72;25.52;;;;;;;8.68;100.00;103017.59;4924323;29;20358;-69
2021/11/09 18:26:25;;;;;;;34.88;22.85;;;;;;;8.95;100.00;103022.69;4937161;29;20023;-68
2021/11/09 18:29:11;;;;;;;30.23;21.23;;;;;;;9.04;100.00;103017.66;4936275;29;20031;-68
2021/11/09 18:31:57;;;;;;;24.95;18.48;;;;;;;8.62;100.00;103032.25;4937694;29;20067;-68
2021/11/09 18:34:46;;;;;;;26.95;19.65;;;;;;;8.76;100.00;103037.00;4936801;29;20031;-68
2021/11/09 18:37:32;;;;;;;24.40;18.70;;;;;;;9.06;100.00;103035.19;4936079;29;20023;-68